Time,TemperatureF,DewpointF,PressureIn,WindDirection,WindDirectionDegrees,WindSpeedMPH,WindSpeedGustMPH,Humidity,HourlyPrecipIn,Conditions,Clouds,dailyrainin,SolarRadiationWatts/m^2,SoftwareType,DateUTC
2013-08-19 00:10:00,63.8,59.0,30.11,SE,130,0.0,0.0,84,0.00,,,0.00,0,weatherlink.com 1.10,2013-08-19 04:10:00,
2013-08-19 00:25:00,63.4,59.0,30.11,SE,130,0.0,0.0,85,0.00,,,0.00,0,weatherlink.com 1.10,2013-08-19 04:25:00,
2013-08-19 00:40:00,63.1,59.0,30.11,SE,130,0.0,0.0,87,0.00,,,0.00,0,weatherlink.com 1.10,2013-08-19 04:40:00,
2013-08-19 00:55:00,62.7,59.0,30.10,SE,130,0.0,0.0,87,0.00,,,0.00,0,weatherlink.com 1.10,2013-08-19 04:55:00,
2013-08-19 01:10:00,62.3,58.0,30.10,SE,130,0.0,0.0,87,0.00,,,0.00,0,weatherlink.com 1.10,2013-08-19 05:10:00,
2013-08-19 01:25:00,62.0,58.0,30.10,SE,130,0.0,0.0,87,0.00,,,0.00,0,weatherlink.com 1.10,2013-08-19 05:25:00,
2013-08-19 01:40:00,61.8,58.0,30.10,SE,130,0.0,0.0,86,0.00,,,0.00,0,weatherlink.com 1.10,2013-08-19 05:40:00,
2013-08-19 01:55:00,61.9,58.0,30.10,SE,130,0.0,0.0,88,0.00,,,0.00,0,weatherlink.com 1.10,2013-08-19 05:55:00,
2013-08-19 02:10:00,61.5,58.0,30.09,SE,130,0.0,0.0,88,0.00,,,0.00,0,weatherlink.com 1.10,2013-08-19 06:10:00,
2013-08-19 02:25:00,61.2,58.0,30.09,SE,130,0.0,0.0,89,0.00,,,0.00,0,weatherlink.com 1.10,2013-08-19 06:25:00,
2013-08-19 02:40:00,61.1,58.0,30.09,SE,130,0.0,0.0,88,0.00,,,0.00,0,weatherlink.com 1.10,2013-08-19 06:40:00,
2013-08-19 02:55:00,61.4,58.0,30.09,SE,130,0.0,0.0,88,0.00,,,0.00,0,weatherlink.com 1.10,2013-08-19 06:55:00,
2013-08-19 03:10:00,61.4,58.0,30.09,SE,130,0.0,0.0,89,0.00,,,0.00,0,weatherlink.com 1.10,2013-08-19 07:10:00,
2013-08-19 03:25:00,60.9,58.0,30.09,SE,130,0.0,0.0,90,0.00,,,0.00,0,weatherlink.com 1.10,2013-08-19 07:25:00,
2013-08-19 03:40:00,60.7,58.0,30.09,SE,130,0.0,0.0,91,0.00,,,0.00,0,weatherlink.com 1.10,2013-08-19 07:40:00,
2013-08-19 03:55:00,60.4,58.0,30.10,SE,130,0.0,0.0,92,0.00,,,0.00,0,weatherlink.com 1.10,2013-08-19 07:55:00,
2013-08-19 04:10:00,60.2,58.0,30.10,SE,130,0.0,0.0,92,0.00,,,0.00,0,weatherlink.com 1.10,2013-08-19 08:10:00,
2013-08-19 04:25:00,60.3,58.0,30.09,SE,130,0.0,0.0,93,0.00,,,0.00,0,weatherlink.com 1.10,2013-08-19 08:25:00,
2013-08-19 04:40:00,60.6,59.0,30.09,SE,130,0.0,0.0,94,0.00,,,0.00,0,weatherlink.com 1.10,2013-08-19 08:40:00,
2013-08-19 04:55:00,60.4,58.0,30.09,SE,130,0.0,0.0,93,0.00,,,0.00,0,weatherlink.com 1.10,2013-08-19 08:55:00,
2013-08-19 05:10:00,60.2,59.0,30.10,SE,130,0.0,0.0,94,0.00,,,0.00,0,weatherlink.com 1.10,2013-08-19 09:10:00,
2013-08-19 05:25:00,60.0,58.0,30.10,SE,130,0.0,0.0,93,0.00,,,0.00,0,weatherlink.com 1.10,2013-08-19 09:25:00,
2013-08-19 05:40:00,59.8,58.0,30.10,SE,130,0.0,0.0,94,0.00,,,0.00,0,weatherlink.com 1.10,2013-08-19 09:40:00,
2013-08-19 05:55:00,59.9,58.0,30.10,SE,130,0.0,0.0,94,0.00,,,0.00,0,weatherlink.com 1.10,2013-08-19 09:55:00,
2013-08-19 06:11:00,59.8,58.0,30.10,SE,130,0.0,0.0,94,0.00,,,0.00,0,weatherlink.com 1.10,2013-08-19 10:11:00,
2013-08-19 06:26:00,60.0,58.0,30.11,SE,130,0.0,0.0,94,0.00,,,0.00,0,weatherlink.com 1.10,2013-08-19 10:26:00,
2013-08-19 06:41:00,59.9,59.0,30.11,SE,130,0.0,0.0,95,0.00,,,0.00,0,weatherlink.com 1.10,2013-08-19 10:41:00,
2013-08-19 06:56:00,60.2,59.0,30.11,SE,130,0.0,0.0,95,0.00,,,0.00,0,weatherlink.com 1.10,2013-08-19 10:56:00,
2013-08-19 07:11:00,59.9,58.0,30.11,SE,130,0.0,0.0,94,0.00,,,0.00,5,weatherlink.com 1.10,2013-08-19 11:11:00,
2013-08-19 07:26:00,59.8,58.0,30.11,SE,130,0.0,0.0,94,0.00,,,0.00,14,weatherlink.com 1.10,2013-08-19 11:26:00,
2013-08-19 07:41:00,59.9,59.0,30.11,SE,130,0.0,0.0,95,0.00,,,0.00,23,weatherlink.com 1.10,2013-08-19 11:41:00,
2013-08-19 07:56:00,60.2,59.0,30.11,SE,130,0.0,0.0,95,0.00,,,0.00,33,weatherlink.com 1.10,2013-08-19 11:56:00,
2013-08-19 08:11:00,60.7,59.0,30.12,SE,130,0.0,0.0,95,0.00,,,0.00,42,weatherlink.com 1.10,2013-08-19 12:11:00,
2013-08-19 08:26:00,61.1,60.0,30.12,SE,130,0.0,0.0,95,0.00,,,0.00,49,weatherlink.com 1.10,2013-08-19 12:26:00,
2013-08-19 08:41:00,61.9,61.0,30.12,SE,130,0.0,0.0,96,0.00,,,0.00,54,weatherlink.com 1.10,2013-08-19 12:41:00,
2013-08-19 08:56:00,62.7,62.0,30.12,SE,130,0.0,0.0,96,0.00,,,0.00,244,weatherlink.com 1.10,2013-08-19 12:56:00,
2013-08-19 09:11:00,64.7,64.0,30.12,SE,130,0.0,0.0,96,0.00,,,0.00,292,weatherlink.com 1.10,2013-08-19 13:11:00,
2013-08-19 09:26:00,66.7,65.0,30.12,SE,130,0.0,0.0,94,0.00,,,0.00,341,weatherlink.com 1.10,2013-08-19 13:26:00,
2013-08-19 09:41:00,69.8,66.0,30.12,SE,130,0.0,0.0,86,0.00,,,0.00,394,weatherlink.com 1.10,2013-08-19 13:41:00,
2013-08-19 09:56:00,73.0,67.0,30.13,SE,130,0.0,0.0,81,0.00,,,0.00,443,weatherlink.com 1.10,2013-08-19 13:56:00,
2013-08-19 10:11:00,76.1,67.0,30.13,SE,130,0.0,0.0,73,0.00,,,0.00,487,weatherlink.com 1.10,2013-08-19 14:11:00,
2013-08-19 10:26:00,77.3,67.0,30.13,SE,130,0.0,0.0,71,0.00,,,0.00,534,weatherlink.com 1.10,2013-08-19 14:26:00,
2013-08-19 10:41:00,78.3,65.0,30.13,SSE,159,0.0,0.0,64,0.00,,,0.00,578,weatherlink.com 1.10,2013-08-19 14:41:00,
2013-08-19 10:56:00,77.9,65.0,30.13,SW,219,0.0,0.0,65,0.00,,,0.00,617,weatherlink.com 1.10,2013-08-19 14:56:00,
2013-08-19 11:12:00,78.4,66.0,30.13,SW,219,0.0,0.0,66,0.00,,,0.00,663,weatherlink.com 1.10,2013-08-19 15:12:00,
2013-08-19 11:27:00,79.4,64.0,30.13,SW,220,0.0,0.0,59,0.00,,,0.00,698,weatherlink.com 1.10,2013-08-19 15:27:00,
2013-08-19 11:42:00,80.2,63.0,30.13,WSW,250,0.0,0.0,56,0.00,,,0.00,740,weatherlink.com 1.10,2013-08-19 15:42:00,
2013-08-19 11:57:00,80.5,62.0,30.12,South,181,0.0,0.0,53,0.00,,,0.00,766,weatherlink.com 1.10,2013-08-19 15:57:00,
2013-08-19 12:12:00,80.6,63.0,30.12,NNE,28,0.0,0.0,55,0.00,,,0.00,796,weatherlink.com 1.10,2013-08-19 16:12:00,
2013-08-19 12:27:00,80.8,64.0,30.12,WSW,240,0.0,0.0,57,0.00,,,0.00,810,weatherlink.com 1.10,2013-08-19 16:27:00,
2013-08-19 12:42:00,80.9,64.0,30.11,SSW,213,0.0,0.0,56,0.00,,,0.00,838,weatherlink.com 1.10,2013-08-19 16:42:00,
2013-08-19 12:57:00,81.8,65.0,30.11,WNW,283,0.0,0.0,57,0.00,,,0.00,874,weatherlink.com 1.10,2013-08-19 16:57:00,
2013-08-19 13:12:00,81.9,64.0,30.10,SSE,162,0.0,0.0,54,0.00,,,0.00,905,weatherlink.com 1.10,2013-08-19 17:12:00,
2013-08-19 13:27:00,81.5,63.0,30.10,South,185,0.0,0.0,54,0.00,,,0.00,253,weatherlink.com 1.10,2013-08-19 17:27:00,
2013-08-19 13:42:00,81.5,63.0,30.10,WSW,250,0.0,0.0,53,0.00,,,0.00,206,weatherlink.com 1.10,2013-08-19 17:42:00,
2013-08-19 13:57:00,80.6,65.0,30.10,WSW,250,0.0,0.0,60,0.00,,,0.00,236,weatherlink.com 1.10,2013-08-19 17:57:00,
2013-08-19 14:12:00,80.3,67.0,30.10,WSW,250,0.0,0.0,63,0.00,,,0.00,983,weatherlink.com 1.10,2013-08-19 18:12:00,
2013-08-19 14:27:00,81.6,64.0,30.10,NE,37,0.0,0.0,56,0.00,,,0.00,246,weatherlink.com 1.10,2013-08-19 18:27:00,
2013-08-19 14:42:00,81.8,67.0,30.09,NE,37,0.0,0.0,61,0.00,,,0.00,287,weatherlink.com 1.10,2013-08-19 18:42:00,
2013-08-19 14:57:00,82.1,67.0,30.09,NE,37,0.0,0.0,61,0.00,,,0.00,902,weatherlink.com 1.10,2013-08-19 18:57:00,
2013-08-19 15:12:00,81.8,66.0,30.09,NE,37,0.0,0.0,60,0.00,,,0.00,856,weatherlink.com 1.10,2013-08-19 19:12:00,
2013-08-19 15:27:00,82.1,64.0,30.08,WSW,248,0.0,0.0,55,0.00,,,0.00,241,weatherlink.com 1.10,2013-08-19 19:27:00,
2013-08-19 15:42:00,81.3,67.0,30.08,West,261,0.0,0.0,62,0.00,,,0.00,276,weatherlink.com 1.10,2013-08-19 19:42:00,
2013-08-19 15:57:00,82.3,66.0,30.07,South,184,0.0,0.0,59,0.00,,,0.00,796,weatherlink.com 1.10,2013-08-19 19:57:00,
2013-08-19 16:12:00,83.2,66.0,30.07,NE,37,0.0,0.0,56,0.00,,,0.00,719,weatherlink.com 1.10,2013-08-19 20:12:00,
2013-08-19 16:27:00,83.2,64.0,30.07,East,86,0.0,0.0,53,0.00,,,0.00,292,weatherlink.com 1.10,2013-08-19 20:27:00,
2013-08-19 16:42:00,82.4,64.0,30.07,East,86,0.0,0.0,54,0.00,,,0.00,411,weatherlink.com 1.10,2013-08-19 20:42:00,
2013-08-19 16:57:00,83.5,64.0,30.06,East,86,0.0,0.0,52,0.00,,,0.00,545,weatherlink.com 1.10,2013-08-19 20:57:00,
2013-08-19 17:12:00,84.1,67.0,30.06,East,86,0.0,0.0,56,0.00,,,0.00,515,weatherlink.com 1.10,2013-08-19 21:12:00,
2013-08-19 17:27:00,83.8,69.0,30.06,SSW,196,0.0,0.0,61,0.00,,,0.00,206,weatherlink.com 1.10,2013-08-19 21:27:00,
2013-08-19 17:42:00,82.8,65.0,30.05,SSW,196,0.0,0.0,56,0.00,,,0.00,424,weatherlink.com 1.10,2013-08-19 21:42:00,
2013-08-19 17:57:00,83.7,68.0,30.05,SSW,196,0.0,0.0,59,0.00,,,0.00,355,weatherlink.com 1.10,2013-08-19 21:57:00,
2013-08-19 18:12:00,83.8,68.0,30.05,SSW,196,0.0,0.0,59,0.00,,,0.00,311,weatherlink.com 1.10,2013-08-19 22:12:00,
2013-08-19 18:27:00,83.5,69.0,30.05,South,186,0.0,0.0,61,0.00,,,0.00,278,weatherlink.com 1.10,2013-08-19 22:27:00,
2013-08-19 18:42:00,83.1,69.0,30.05,East,93,0.0,0.0,62,0.00,,,0.00,229,weatherlink.com 1.10,2013-08-19 22:42:00,
2013-08-19 18:58:00,82.6,69.0,30.04,East,93,0.0,0.0,64,0.00,,,0.00,193,weatherlink.com 1.10,2013-08-19 22:58:00,
2013-08-19 19:13:00,81.9,69.0,30.04,East,93,0.0,0.0,65,0.00,,,0.00,162,weatherlink.com 1.10,2013-08-19 23:13:00,
2013-08-19 19:28:00,81.0,69.0,30.04,East,93,0.0,0.0,68,0.00,,,0.00,121,weatherlink.com 1.10,2013-08-19 23:28:00,
2013-08-19 19:43:00,79.2,68.0,30.04,East,93,0.0,0.0,68,0.00,,,0.00,67,weatherlink.com 1.10,2013-08-19 23:43:00,
2013-08-19 19:58:00,77.2,67.0,30.04,East,93,0.0,0.0,71,0.00,,,0.00,46,weatherlink.com 1.10,2013-08-19 23:58:00,
2013-08-19 20:13:00,75.9,66.0,30.04,East,93,0.0,0.0,72,0.00,,,0.00,35,weatherlink.com 1.10,2013-08-20 00:13:00,
2013-08-19 20:28:00,74.6,66.0,30.04,East,93,0.0,0.0,74,0.00,,,0.00,14,weatherlink.com 1.10,2013-08-20 00:28:00,
2013-08-19 20:43:00,73.4,64.0,30.04,East,93,0.0,0.0,73,0.00,,,0.00,0,weatherlink.com 1.10,2013-08-20 00:43:00,
2013-08-19 20:58:00,72.1,64.0,30.04,East,93,0.0,0.0,75,0.00,,,0.00,0,weatherlink.com 1.10,2013-08-20 00:58:00,
2013-08-19 21:13:00,71.1,62.0,30.05,East,93,0.0,0.0,73,0.00,,,0.00,0,weatherlink.com 1.10,2013-08-20 01:13:00,
2013-08-19 21:28:00,70.3,62.0,30.05,East,93,0.0,0.0,76,0.00,,,0.00,0,weatherlink.com 1.10,2013-08-20 01:28:00,
2013-08-19 21:43:00,69.6,61.0,30.05,East,93,0.0,0.0,75,0.00,,,0.00,0,weatherlink.com 1.10,2013-08-20 01:43:00,
2013-08-19 21:58:00,69.3,63.0,30.06,East,93,0.0,0.0,79,0.00,,,0.00,0,weatherlink.com 1.10,2013-08-20 01:58:00,
2013-08-19 22:13:00,68.5,62.0,30.06,East,93,0.0,0.0,80,0.00,,,0.00,0,weatherlink.com 1.10,2013-08-20 02:13:00,
2013-08-19 22:28:00,68.1,62.0,30.06,East,93,0.0,0.0,80,0.00,,,0.00,0,weatherlink.com 1.10,2013-08-20 02:28:00,
2013-08-19 22:43:00,67.9,62.0,30.06,East,93,0.0,0.0,81,0.00,,,0.00,0,weatherlink.com 1.10,2013-08-20 02:43:00,
2013-08-19 22:58:00,67.7,62.0,30.06,East,93,0.0,0.0,81,0.00,,,0.00,0,weatherlink.com 1.10,2013-08-20 02:58:00,
2013-08-19 23:13:00,67.6,62.0,30.07,East,93,0.0,0.0,81,0.00,,,0.00,0,weatherlink.com 1.10,2013-08-20 03:13:00,
2013-08-19 23:28:00,67.3,62.0,30.07,East,93,0.0,0.0,82,0.00,,,0.00,0,weatherlink.com 1.10,2013-08-20 03:28:00,
2013-08-19 23:43:00,67.2,63.0,30.07,East,93,0.0,0.0,85,0.00,,,0.00,0,weatherlink.com 1.10,2013-08-20 03:43:00,
2013-08-19 23:58:00,66.9,62.0,30.07,East,93,0.0,0.0,84,0.00,,,0.00,0,weatherlink.com 1.10,2013-08-20 03:58:00,